Terminal Aerodrome Forecast
Issued by NWS

Home | Current Version | Previous Version | Text Only | Print | Product List | Glossary Off
Versions: 1 2 3 4 5 6 7 8 9 10 11 12 13 14 15 16 17 18

000
FTUS43 KICT 180300 AAB
TAFSLN
TAF AMD
KSLN 180332Z 1804/1824 33020KT P6SM -TSRA BKN080CB
      TEMPO 1804/1805 32025G40KT
     FM180530 35010KT P6SM SCT100
     FM181500 19010KT P6SM SCT250
     FM181900 22013KT P6SM SCT250=

USA.gov is the U.S. government's official web portal to all federal, state and local government web resources and services.